createdAt,value
2019-05-07T00:00:28.894Z,70.80
2019-05-07T00:02:58.495Z,70.50
2019-05-07T00:05:28.139Z,70.30
2019-05-07T00:07:57.762Z,70.40
2019-05-07T00:10:27.374Z,70.80
2019-05-07T00:12:56.357Z,71.00
2019-05-07T00:15:25.297Z,70.80
2019-05-07T00:17:54.756Z,71.00
2019-05-07T00:20:23.965Z,70.80
2019-05-07T00:22:53.902Z,70.70
2019-05-07T00:25:24.047Z,70.50
2019-05-07T00:27:53.278Z,70.80
2019-05-07T00:30:22.406Z,71.00
2019-05-07T00:32:53.088Z,70.80
2019-05-07T00:35:25.355Z,71.00
2019-05-07T00:37:59.702Z,71.10
2019-05-07T00:40:52.019Z,71.30
2019-05-07T00:43:24.711Z,71.20
2019-05-07T00:45:57.478Z,71.30
2019-05-07T00:48:26.619Z,71.70
2019-05-07T00:51:14.985Z,72.30
2019-05-07T00:53:44.326Z,72.70
2019-05-07T00:56:13.466Z,72.70
2019-05-07T00:58:42.937Z,73.00
2019-05-07T01:01:13.073Z,73.20
2019-05-07T01:03:42.561Z,73.40
2019-05-07T01:06:12.857Z,73.60
2019-05-07T01:08:43.140Z,73.50
2019-05-07T01:11:13.141Z,73.20
2019-05-07T01:13:43.255Z,73.50
2019-05-07T01:16:12.984Z,73.50
2019-05-07T01:18:42.383Z,73.00
2019-05-07T01:21:13.790Z,73.10
2019-05-07T01:23:42.953Z,73.10
2019-05-07T01:26:12.531Z,73.40
2019-05-07T01:29:02.817Z,73.40
2019-05-07T01:31:42.982Z,73.10
2019-05-07T01:34:36.222Z,73.40
2019-05-07T01:37:05.316Z,73.50
2019-05-07T01:39:35.245Z,73.90
2019-05-07T01:42:04.316Z,73.70
2019-05-07T01:44:33.613Z,73.60
2019-05-07T01:47:04.204Z,73.90
2019-05-07T01:49:33.371Z,74.00
2019-05-07T01:52:03.410Z,74.00
2019-05-07T01:54:33.501Z,74.40
2019-05-07T01:57:03.113Z,74.60
2019-05-07T01:59:32.900Z,74.60
2019-05-07T02:02:08.729Z,74.60
2019-05-07T02:04:43.997Z,74.70
2019-05-07T02:07:25.517Z,75.00
2019-05-07T02:10:04.613Z,75.10
2019-05-07T02:12:35.723Z,75.20
2019-05-07T02:15:06.079Z,75.20
2019-05-07T02:17:36.072Z,75.30
2019-05-07T02:20:06.922Z,75.40
2019-05-07T02:22:36.182Z,75.50
2019-05-07T02:25:06.428Z,75.60
2019-05-07T02:27:35.443Z,75.50
2019-05-07T02:30:05.392Z,76.00
2019-05-07T02:32:34.630Z,76.30
2019-05-07T02:35:04.380Z,76.30
2019-05-07T02:37:56.592Z,76.30
2019-05-07T02:40:28.961Z,76.40
2019-05-07T02:42:58.301Z,76.00
2019-05-07T02:45:49.816Z,75.40
2019-05-07T02:48:23.742Z,75.30
2019-05-07T02:51:03.942Z,74.70
2019-05-07T02:53:43.104Z,75.30
2019-05-07T02:56:13.048Z,75.30
2019-05-07T02:58:43.425Z,75.40
2019-05-07T03:01:13.788Z,75.30
2019-05-07T03:03:44.928Z,75.20
2019-05-07T03:06:13.732Z,74.90
2019-05-07T03:08:43.958Z,75.30
2019-05-07T03:11:14.160Z,75.70
2019-05-07T03:13:43.215Z,75.90
2019-05-07T03:16:13.079Z,76.30
2019-05-07T03:18:43.890Z,76.10
2019-05-07T03:21:14.675Z,76.30
2019-05-07T03:24:08.094Z,76.70
2019-05-07T03:26:43.327Z,76.90
2019-05-07T03:29:15.046Z,77.20
2019-05-07T03:31:55.642Z,77.80
2019-05-07T03:34:29.554Z,78.00
2019-05-07T03:36:58.036Z,78.00
2019-05-07T03:39:26.709Z,78.50
2019-05-07T03:41:55.371Z,78.40
2019-05-07T03:44:45.576Z,78.60
2019-05-07T03:47:36.859Z,78.80
2019-05-07T03:50:05.976Z,78.90
2019-05-07T03:52:34.029Z,79.10
2019-05-07T03:55:03.695Z,79.20
2019-05-07T03:57:33.453Z,79.00
2019-05-07T04:00:04.275Z,78.90
2019-05-07T04:02:33.205Z,78.80
2019-05-07T04:05:04.399Z,78.90
2019-05-07T04:07:33.648Z,79.30
2019-05-07T04:10:04.426Z,78.90
2019-05-07T04:12:34.246Z,78.90
2019-05-07T04:15:03.436Z,78.50
2019-05-07T04:17:33.853Z,77.80
2019-05-07T04:20:04.406Z,76.90
2019-05-07T04:22:37.022Z,76.80
2019-05-07T04:25:17.253Z,76.50
2019-05-07T04:27:54.454Z,76.30
2019-05-07T04:30:24.238Z,75.60
2019-05-07T04:32:55.751Z,75.70
2019-05-07T04:35:37.509Z,75.80
2019-05-07T04:38:07.529Z,76.40
2019-05-07T04:40:39.485Z,76.70
2019-05-07T04:43:13.192Z,76.50
2019-05-07T04:45:44.013Z,76.50
2019-05-07T04:48:19.746Z,76.40
2019-05-07T04:50:53.904Z,75.90
2019-05-07T04:53:23.648Z,75.60
2019-05-07T04:55:53.728Z,74.40
2019-05-07T04:58:26.709Z,74.20
2019-05-07T05:00:56.455Z,74.30
2019-05-07T05:03:27.609Z,73.90
2019-05-07T05:05:57.382Z,74.00
2019-05-07T05:08:29.432Z,73.10
2019-05-07T05:10:58.841Z,73.10
2019-05-07T05:13:29.287Z,72.70
2019-05-07T05:16:02.029Z,72.70
2019-05-07T05:18:36.890Z,72.80
2019-05-07T05:21:14.855Z,72.70
2019-05-07T05:24:01.817Z,72.40
2019-05-07T05:26:32.588Z,72.60
2019-05-07T05:29:02.480Z,71.80
2019-05-07T05:31:33.026Z,71.20
2019-05-07T05:34:02.865Z,70.90
2019-05-07T05:36:33.111Z,70.30
2019-05-07T05:39:03.187Z,69.70
2019-05-07T05:41:37.731Z,70.10
2019-05-07T05:44:13.058Z,70.80
2019-05-07T05:46:42.907Z,70.80
2019-05-07T05:49:12.391Z,69.50
2019-05-07T05:51:47.996Z,69.30
2019-05-07T05:54:36.398Z,69.30
2019-05-07T05:57:25.416Z,69.00
2019-05-07T06:00:12.758Z,67.70
2019-05-07T06:02:53.269Z,66.90
2019-05-07T06:05:47.959Z,67.20
2019-05-07T06:08:24.907Z,67.20
2019-05-07T06:11:12.226Z,64.90
2019-05-07T06:14:13.022Z,65.20
2019-05-07T06:16:48.725Z,62.10
2019-05-07T06:19:26.660Z,61.70
2019-05-07T06:22:37.654Z,61.60
2019-05-07T06:25:18.863Z,61.10
2019-05-07T06:27:47.555Z,61.80
2019-05-07T06:30:16.792Z,62.20
2019-05-07T06:32:48.210Z,62.40
2019-05-07T06:35:28.446Z,61.70
2019-05-07T06:37:57.309Z,61.00
2019-05-07T06:40:37.311Z,62.20
2019-05-07T06:43:32.518Z,61.30
2019-05-07T06:46:03.542Z,60.70
2019-05-07T06:48:42.493Z,60.60
2019-05-07T06:51:03.117Z,60.00
2019-05-07T06:53:33.377Z,59.40
2019-05-07T06:56:03.590Z,59.20
2019-05-07T06:58:37.255Z,58.40
2019-05-07T07:01:27.754Z,58.10
2019-05-07T07:04:03.408Z,56.90
2019-05-07T07:06:36.834Z,55.20
2019-05-07T07:09:24.126Z,54.40
2019-05-07T07:11:56.168Z,54.40
2019-05-07T07:14:24.265Z,55.10
2019-05-07T07:16:52.785Z,53.40
2019-05-07T07:19:23.271Z,53.50
2019-05-07T07:21:52.922Z,52.70
2019-05-07T07:24:22.237Z,52.70
2019-05-07T07:26:52.656Z,52.70
2019-05-07T07:29:22.597Z,52.30
2019-05-07T07:31:54.183Z,51.40
2019-05-07T07:34:22.978Z,50.20
2019-05-07T07:37:18.031Z,49.40
2019-05-07T07:39:46.718Z,49.20
2019-05-07T07:42:15.539Z,47.70
2019-05-07T07:44:43.694Z,47.60
2019-05-07T07:47:12.999Z,45.70
2019-05-07T07:49:42.110Z,45.30
2019-05-07T07:52:12.214Z,43.50
2019-05-07T07:54:42.909Z,43.00
2019-05-07T07:57:32.444Z,42.60
2019-05-07T08:00:23.396Z,42.30
2019-05-07T08:02:56.749Z,41.90
2019-05-07T08:05:24.823Z,43.00
2019-05-07T08:07:53.360Z,43.70
2019-05-07T08:10:22.983Z,44.50
2019-05-07T08:12:52.568Z,43.50
2019-05-07T08:15:24.364Z,44.70
2019-05-07T08:17:52.234Z,45.70
2019-05-07T08:20:23.681Z,45.80
2019-05-07T08:22:52.721Z,46.90
2019-05-07T08:25:23.910Z,47.70
2019-05-07T08:27:52.476Z,47.20
2019-05-07T08:30:23.879Z,47.00
2019-05-07T08:33:02.151Z,46.80
2019-05-07T08:35:37.627Z,47.60
2019-05-07T08:38:06.027Z,47.20
2019-05-07T08:40:35.038Z,47.90
2019-05-07T08:43:06.605Z,48.10
2019-05-07T08:46:12.128Z,47.50
2019-05-07T08:48:44.247Z,45.80
2019-05-07T08:51:12.855Z,41.60
2019-05-07T08:53:42.530Z,38.00
2019-05-07T08:56:12.467Z,36.00
2019-05-07T08:58:42.071Z,32.70
2019-05-07T09:01:11.850Z,30.50
2019-05-07T09:03:43.344Z,29.30
2019-05-07T09:06:12.087Z,27.80
2019-05-07T09:08:40.510Z,29.80
2019-05-07T09:11:09.976Z,30.50
2019-05-07T09:13:38.444Z,32.80
2019-05-07T09:16:06.843Z,34.00
2019-05-07T09:18:35.374Z,35.60
2019-05-07T09:21:03.606Z,36.10
2019-05-07T09:23:32.195Z,35.70
2019-05-07T09:26:02.616Z,36.10
2019-05-07T09:28:52.278Z,35.60
2019-05-07T09:31:32.215Z,34.90
2019-05-07T09:34:02.642Z,32.20
2019-05-07T09:36:37.357Z,30.30
2019-05-07T09:39:06.631Z,30.10
2019-05-07T09:41:35.749Z,30.90
2019-05-07T09:44:04.066Z,31.10
2019-05-07T09:46:32.686Z,29.80
2019-05-07T09:49:02.916Z,29.80
2019-05-07T09:51:32.176Z,28.50
2019-05-07T09:54:02.505Z,27.50
2019-05-07T09:56:32.018Z,26.60
2019-05-07T09:59:02.188Z,26.00
2019-05-07T10:01:31.943Z,26.50
2019-05-07T10:04:02.614Z,27.20
2019-05-07T10:06:32.113Z,27.00
2019-05-07T10:09:02.857Z,26.50
2019-05-07T10:11:37.928Z,25.30
2019-05-07T10:14:09.145Z,24.90
2019-05-07T10:16:44.629Z,24.30
2019-05-07T10:19:13.327Z,24.10
2019-05-07T10:21:42.556Z,23.70
2019-05-07T10:24:12.980Z,23.70
2019-05-07T10:26:47.024Z,24.30
2019-05-07T10:29:17.090Z,25.00
2019-05-07T10:31:48.188Z,25.70
2019-05-07T10:34:16.594Z,26.70
2019-05-07T10:36:48.121Z,27.20
2019-05-07T10:39:16.795Z,27.40
2019-05-07T10:41:45.608Z,29.00
2019-05-07T10:44:15.512Z,29.80
2019-05-07T10:47:05.926Z,29.80
2019-05-07T10:49:42.228Z,29.10
2019-05-07T10:52:12.434Z,29.20
2019-05-07T10:54:43.168Z,29.70
2019-05-07T10:57:12.810Z,30.70
2019-05-07T10:59:42.219Z,32.00
2019-05-07T11:02:17.517Z,32.00
2019-05-07T11:04:46.160Z,32.00
2019-05-07T11:07:18.326Z,32.10
2019-05-07T11:09:48.729Z,31.80
2019-05-07T11:12:22.818Z,31.80
2019-05-07T11:14:52.340Z,31.60
2019-05-07T11:17:41.871Z,32.50
2019-05-07T11:20:12.408Z,32.10
2019-05-07T11:22:42.866Z,33.50
2019-05-07T11:25:12.943Z,33.70
2019-05-07T11:27:42.944Z,32.70
2019-05-07T11:30:16.128Z,32.70
2019-05-07T11:32:45.626Z,33.60
2019-05-07T11:35:22.753Z,33.70
2019-05-07T11:37:52.052Z,33.70
2019-05-07T11:40:22.884Z,34.00
2019-05-07T11:43:06.942Z,34.20
2019-05-07T11:45:49.443Z,33.90
2019-05-07T11:48:18.803Z,34.50
2019-05-07T11:51:03.260Z,35.30
2019-05-07T11:53:28.523Z,35.70
2019-05-07T11:55:57.100Z,35.80
2019-05-07T11:58:27.386Z,35.70
2019-05-07T12:01:06.826Z,35.60
2019-05-07T12:03:37.159Z,36.40
2019-05-07T12:06:09.965Z,36.10
2019-05-07T12:08:49.742Z,35.70
2019-05-07T12:11:14.078Z,35.90
2019-05-07T12:13:43.682Z,35.80
2019-05-07T12:16:14.204Z,35.30
2019-05-07T12:18:44.054Z,35.20
2019-05-07T12:21:20.290Z,34.80
2019-05-07T12:23:48.458Z,35.20
2019-05-07T12:26:18.269Z,34.90
2019-05-07T12:28:49.618Z,35.40
2019-05-07T12:31:29.743Z,35.50
2019-05-07T12:34:04.399Z,35.80
2019-05-07T12:36:34.167Z,36.00
2019-05-07T12:39:06.408Z,36.20
2019-05-07T12:41:36.816Z,36.30
2019-05-07T12:44:06.258Z,36.70
2019-05-07T12:46:34.899Z,37.00
2019-05-07T12:49:03.427Z,37.00
2019-05-07T12:51:37.853Z,36.30
2019-05-07T12:54:34.672Z,36.60
2019-05-07T12:57:02.525Z,36.40
2019-05-07T12:59:32.264Z,36.80
2019-05-07T13:02:37.214Z,36.70
2019-05-07T13:04:58.113Z,37.40
2019-05-07T13:07:46.746Z,37.60
2019-05-07T13:10:15.512Z,38.30
2019-05-07T13:12:43.692Z,38.70
2019-05-07T13:15:23.947Z,36.90
2019-05-07T13:17:42.746Z,37.40
2019-05-07T13:20:12.171Z,38.10
2019-05-07T13:22:42.731Z,37.60
2019-05-07T13:25:12.200Z,37.40
2019-05-07T13:27:42.952Z,37.70
2019-05-07T13:30:12.296Z,37.80
2019-05-07T13:32:44.676Z,37.70
2019-05-07T13:35:16.544Z,37.80
2019-05-07T13:37:48.844Z,37.00
2019-05-07T13:40:42.593Z,37.60
2019-05-07T13:43:20.517Z,36.90
2019-05-07T13:46:12.222Z,37.40
2019-05-07T13:48:45.622Z,38.30
2019-05-07T13:51:14.406Z,38.50
2019-05-07T13:53:42.824Z,37.50
2019-05-07T13:56:14.866Z,37.20
2019-05-07T13:58:44.337Z,37.80
2019-05-07T14:01:23.031Z,38.20
2019-05-07T14:03:52.465Z,37.70
2019-05-07T14:06:42.632Z,37.70
2019-05-07T14:09:24.220Z,37.40
2019-05-07T14:11:52.843Z,37.50
2019-05-07T14:14:22.363Z,37.70
2019-05-07T14:16:53.040Z,37.80
2019-05-07T14:19:22.441Z,37.90
2019-05-07T14:21:52.566Z,36.80
2019-05-07T14:24:22.418Z,37.00
2019-05-07T14:26:52.862Z,37.00
2019-05-07T14:29:24.458Z,37.40
2019-05-07T14:31:59.328Z,37.40
2019-05-07T14:34:32.745Z,37.10
2019-05-07T14:37:22.617Z,37.10
2019-05-07T14:39:51.915Z,36.60
2019-05-07T14:42:29.756Z,36.70
2019-05-07T14:44:58.402Z,36.70
2019-05-07T14:47:27.086Z,37.30
2019-05-07T14:49:56.773Z,37.40
2019-05-07T14:52:32.152Z,37.30
2019-05-07T14:54:55.572Z,37.30
2019-05-07T14:57:23.955Z,37.20
2019-05-07T14:59:52.652Z,37.90
2019-05-07T15:02:23.667Z,37.70
2019-05-07T15:04:52.703Z,37.80
2019-05-07T15:07:22.642Z,37.30
2019-05-07T15:09:51.978Z,37.00
2019-05-07T15:12:23.081Z,37.50
2019-05-07T15:14:52.819Z,37.70
2019-05-07T15:17:50.092Z,38.20
2019-05-07T15:20:18.258Z,38.20
2019-05-07T15:23:06.187Z,38.70
2019-05-07T15:25:34.571Z,38.80
2019-05-07T15:28:02.719Z,38.20
2019-05-07T15:30:44.818Z,38.90
2019-05-07T15:33:15.193Z,39.20
2019-05-07T15:35:43.759Z,39.00
2019-05-07T15:38:13.631Z,39.00
2019-05-07T15:40:42.638Z,39.40
2019-05-07T15:43:12.867Z,38.70
2019-05-07T15:45:41.894Z,38.70
2019-05-07T15:48:12.533Z,38.50
2019-05-07T15:50:40.378Z,38.80
2019-05-07T15:53:24.698Z,39.20
2019-05-07T15:55:53.378Z,39.50
2019-05-07T15:58:22.732Z,39.30
2019-05-07T16:00:51.757Z,39.20
2019-05-07T16:03:25.248Z,38.00
2019-05-07T16:05:54.378Z,38.40
2019-05-07T16:08:23.136Z,39.10
2019-05-07T16:10:53.109Z,39.50
2019-05-07T16:13:25.606Z,39.20
2019-05-07T16:15:54.138Z,39.30
2019-05-07T16:18:27.650Z,40.10
2019-05-07T16:20:56.141Z,39.80
2019-05-07T16:23:24.657Z,39.70
2019-05-07T16:25:53.091Z,40.20
2019-05-07T16:28:21.923Z,40.60
2019-05-07T16:30:52.094Z,40.40
2019-05-07T16:33:21.104Z,40.40
2019-05-07T16:35:49.841Z,40.10
2019-05-07T16:38:18.370Z,39.70
2019-05-07T16:40:47.263Z,40.00
2019-05-07T16:43:15.880Z,39.70
2019-05-07T16:45:44.191Z,39.70
2019-05-07T16:48:12.689Z,39.70
2019-05-07T16:50:40.898Z,39.50
2019-05-07T16:53:09.145Z,40.10
2019-05-07T16:55:37.796Z,40.90
2019-05-07T16:58:34.470Z,41.40
2019-05-07T17:01:04.794Z,41.50
2019-05-07T17:03:45.844Z,41.00
2019-05-07T17:06:14.199Z,41.60
2019-05-07T17:09:07.273Z,41.50
2019-05-07T17:11:35.708Z,41.50
2019-05-07T17:14:03.776Z,41.20
2019-05-07T17:16:34.681Z,41.90
2019-05-07T17:19:03.095Z,42.30
2019-05-07T17:21:32.412Z,42.70
2019-05-07T17:24:02.602Z,42.40
2019-05-07T17:26:30.944Z,42.00
2019-05-07T17:28:59.315Z,42.40
2019-05-07T17:31:27.757Z,41.40
2019-05-07T17:33:56.456Z,41.40
2019-05-07T17:36:25.043Z,42.40
2019-05-07T17:38:53.153Z,42.90
2019-05-07T17:41:26.507Z,42.60
2019-05-07T17:43:52.178Z,42.60
2019-05-07T17:46:21.734Z,42.60
2019-05-07T17:48:52.414Z,42.50
2019-05-07T17:51:39.022Z,42.90
2019-05-07T17:54:08.542Z,43.20
2019-05-07T17:56:42.151Z,43.30
2019-05-07T17:59:11.994Z,43.80
2019-05-07T18:01:59.142Z,43.60
2019-05-07T18:04:29.280Z,43.80
2019-05-07T18:07:00.426Z,43.30
2019-05-07T18:09:31.766Z,44.10
2019-05-07T18:12:01.137Z,44.40
2019-05-07T18:14:32.159Z,44.70
2019-05-07T18:17:12.446Z,44.70
2019-05-07T18:19:42.172Z,44.70
2019-05-07T18:22:12.791Z,44.70
2019-05-07T18:24:42.230Z,44.80
2019-05-07T18:27:24.386Z,45.20
2019-05-07T18:29:54.048Z,45.10
2019-05-07T18:32:32.409Z,45.30
2019-05-07T18:35:02.425Z,45.30
2019-05-07T18:37:33.090Z,45.40
2019-05-07T18:40:02.969Z,46.10
2019-05-07T18:42:36.283Z,46.00
2019-05-07T18:45:05.852Z,46.00
2019-05-07T18:47:35.424Z,46.20
2019-05-07T18:50:04.976Z,46.10
2019-05-07T18:52:34.795Z,46.40
2019-05-07T18:55:04.294Z,46.60
2019-05-07T18:57:34.574Z,46.80
2019-05-07T19:00:05.975Z,46.80
2019-05-07T19:02:35.536Z,47.40
2019-05-07T19:05:04.737Z,47.30
2019-05-07T19:07:35.650Z,47.90
2019-05-07T19:10:05.085Z,48.20
2019-05-07T19:12:35.889Z,48.20
2019-05-07T19:15:05.262Z,48.20
2019-05-07T19:17:36.695Z,48.20
2019-05-07T19:20:07.749Z,48.20
2019-05-07T19:22:38.026Z,48.60
2019-05-07T19:25:06.619Z,48.90
2019-05-07T19:27:34.838Z,49.30
2019-05-07T19:30:04.533Z,49.50
2019-05-07T19:32:34.138Z,49.20
2019-05-07T19:35:08.280Z,49.40
2019-05-07T19:37:37.279Z,49.50
2019-05-07T19:40:05.515Z,50.20
2019-05-07T19:42:34.650Z,50.50
2019-05-07T19:45:03.177Z,50.90
2019-05-07T19:47:32.728Z,51.40
2019-05-07T19:50:02.963Z,51.10
2019-05-07T19:52:33.215Z,51.20
2019-05-07T19:55:04.827Z,51.00
2019-05-07T19:57:39.071Z,51.00
2019-05-07T20:00:09.313Z,51.10
2019-05-07T20:02:43.872Z,50.90
2019-05-07T20:05:13.748Z,50.90
2019-05-07T20:07:47.361Z,50.40
2019-05-07T20:10:21.864Z,49.90
2019-05-07T20:12:58.739Z,49.10
2019-05-07T20:15:32.025Z,49.00
2019-05-07T20:18:04.959Z,49.10
2019-05-07T20:20:34.742Z,49.00
2019-05-07T20:23:03.217Z,48.90
2019-05-07T20:25:33.365Z,48.90
2019-05-07T20:28:02.155Z,49.10
2019-05-07T20:30:32.370Z,49.20
2019-05-07T20:33:03.157Z,49.50
2019-05-07T20:35:32.649Z,49.70
2019-05-07T20:38:02.923Z,49.80
2019-05-07T20:40:32.013Z,50.00
2019-05-07T20:43:01.938Z,50.10
2019-05-07T20:45:32.027Z,50.10
2019-05-07T20:48:02.523Z,50.60
2019-05-07T20:50:33.112Z,50.80
2019-05-07T20:53:02.043Z,51.30
2019-05-07T20:55:55.655Z,51.20
2019-05-07T20:58:24.076Z,51.10
2019-05-07T21:00:53.023Z,51.60
2019-05-07T21:03:23.733Z,51.20
2019-05-07T21:05:53.216Z,51.40
2019-05-07T21:08:27.066Z,51.40
2019-05-07T21:10:55.577Z,51.40
2019-05-07T21:13:31.072Z,51.40
2019-05-07T21:15:54.305Z,51.40
2019-05-07T21:18:23.657Z,51.60
2019-05-07T21:20:54.878Z,51.90
2019-05-07T21:23:23.479Z,52.00
2019-05-07T21:25:52.819Z,51.70
2019-05-07T21:28:21.348Z,51.50
2019-05-07T21:30:52.176Z,51.80
2019-05-07T21:33:20.037Z,52.00
2019-05-07T21:35:49.204Z,52.50
2019-05-07T21:38:22.101Z,52.70
2019-05-07T21:40:50.216Z,52.50
2019-05-07T21:43:21.811Z,52.80
2019-05-07T21:45:49.390Z,52.90
2019-05-07T21:48:18.264Z,53.30
2019-05-07T21:50:47.127Z,53.20
2019-05-07T21:53:22.885Z,53.40
2019-05-07T21:56:19.760Z,53.40
2019-05-07T21:58:54.435Z,53.70
2019-05-07T22:01:43.698Z,55.30
2019-05-07T22:04:13.306Z,54.30
2019-05-07T22:06:45.427Z,55.70
2019-05-07T22:09:14.506Z,55.60
2019-05-07T22:11:44.220Z,55.80
2019-05-07T22:14:13.942Z,55.70
2019-05-07T22:16:44.292Z,54.60
2019-05-07T22:19:13.891Z,54.50
2019-05-07T22:21:43.307Z,55.70
2019-05-07T22:24:15.081Z,54.90
2019-05-07T22:26:43.162Z,54.90
2019-05-07T22:29:12.527Z,54.70
2019-05-07T22:31:47.800Z,54.80
2019-05-07T22:34:52.055Z,56.10
2019-05-07T22:37:21.973Z,56.40
2019-05-07T22:39:50.844Z,57.00
2019-05-07T22:42:19.214Z,57.20
2019-05-07T22:44:47.385Z,57.10
2019-05-07T22:47:19.082Z,57.40
2019-05-07T22:49:50.055Z,57.50
2019-05-07T22:52:23.641Z,58.20
2019-05-07T22:54:53.029Z,58.50
2019-05-07T22:57:52.418Z,58.60
2019-05-07T23:00:32.159Z,58.70
2019-05-07T23:03:02.697Z,58.70
2019-05-07T23:05:32.506Z,58.80
2019-05-07T23:08:02.362Z,58.60
2019-05-07T23:11:24.478Z,58.40
2019-05-07T23:13:54.774Z,58.50
2019-05-07T23:16:25.267Z,59.30
2019-05-07T23:18:54.978Z,59.50
2019-05-07T23:21:24.639Z,60.10
2019-05-07T23:23:54.391Z,59.90
2019-05-07T23:26:23.650Z,59.20
2019-05-07T23:28:53.051Z,58.90
2019-05-07T23:31:24.769Z,58.90
2019-05-07T23:33:54.246Z,58.90
2019-05-07T23:36:24.462Z,59.20
2019-05-07T23:39:02.624Z,58.90
2019-05-07T23:41:49.778Z,59.10
2019-05-07T23:44:22.920Z,59.30
2019-05-07T23:46:56.071Z,59.90
2019-05-07T23:49:28.165Z,60.70
2019-05-07T23:52:12.845Z,60.20
2019-05-07T23:54:48.675Z,60.50
2019-05-07T23:57:36.821Z,60.90
